sensor_id;sensor_type;location;lat;lon;timestamp;temperature;humidity
21944;DHT22;11136;48.778;9.126;2023-03-21T00:01:29;11.50;99.90
21944;DHT22;11136;48.778;9.126;2023-03-21T00:03:55;11.50;99.90
21944;DHT22;11136;48.778;9.126;2023-03-21T00:06:20;11.50;99.90
21944;DHT22;11136;48.778;9.126;2023-03-21T00:08:47;11.50;99.90
21944;DHT22;11136;48.778;9.126;2023-03-21T00:11:13;11.40;99.90
21944;DHT22;11136;48.778;9.126;2023-03-21T00:13:38;11.80;99.90
21944;DHT22;11136;48.778;9.126;2023-03-21T00:16:12;11.50;99.90
21944;DHT22;11136;48.778;9.126;2023-03-21T00:18:46;11.50;99.90
21944;DHT22;11136;48.778;9.126;2023-03-21T00:21:18;11.50;99.90
21944;DHT22;11136;48.778;9.126;2023-03-21T00:23:44;11.50;99.90
21944;DHT22;11136;48.778;9.126;2023-03-21T00:26:11;11.50;99.90
21944;DHT22;11136;48.778;9.126;2023-03-21T00:28:38;11.40;99.90
21944;DHT22;11136;48.778;9.126;2023-03-21T00:31:05;11.40;99.90
21944;DHT22;11136;48.778;9.126;2023-03-21T00:33:31;11.40;99.90
21944;DHT22;11136;48.778;9.126;2023-03-21T00:35:57;11.40;99.90
21944;DHT22;11136;48.778;9.126;2023-03-21T00:38:23;11.40;99.90
21944;DHT22;11136;48.778;9.126;2023-03-21T00:40:49;11.40;99.90
21944;DHT22;11136;48.778;9.126;2023-03-21T00:43:16;11.40;99.90
21944;DHT22;11136;48.778;9.126;2023-03-21T00:45:44;11.40;99.90
21944;DHT22;11136;48.778;9.126;2023-03-21T00:48:11;11.40;99.90
21944;DHT22;11136;48.778;9.126;2023-03-21T00:50:37;11.40;99.90
21944;DHT22;11136;48.778;9.126;2023-03-21T00:53:07;11.40;99.90
21944;DHT22;11136;48.778;9.126;2023-03-21T00:55:33;11.40;99.90
21944;DHT22;11136;48.778;9.126;2023-03-21T00:57:58;11.40;99.90
21944;DHT22;11136;48.778;9.126;2023-03-21T01:00:25;11.40;99.90
21944;DHT22;11136;48.778;9.126;2023-03-21T01:02:52;11.40;99.90
21944;DHT22;11136;48.778;9.126;2023-03-21T01:05:23;11.30;99.90
21944;DHT22;11136;48.778;9.126;2023-03-21T01:08:14;11.40;99.90
21944;DHT22;11136;48.778;9.126;2023-03-21T01:10:45;11.30;99.90
21944;DHT22;11136;48.778;9.126;2023-03-21T01:13:12;11.30;99.90
21944;DHT22;11136;48.778;9.126;2023-03-21T01:15:46;11.30;99.90
21944;DHT22;11136;48.778;9.126;2023-03-21T01:18:13;11.30;99.90
21944;DHT22;11136;48.778;9.126;2023-03-21T01:20:41;11.30;99.90
21944;DHT22;11136;48.778;9.126;2023-03-21T01:23:07;11.30;99.90
21944;DHT22;11136;48.778;9.126;2023-03-21T01:25:33;11.30;99.90
21944;DHT22;11136;48.778;9.126;2023-03-21T01:27:58;11.30;99.90
21944;DHT22;11136;48.778;9.126;2023-03-21T01:30:24;11.30;99.90
21944;DHT22;11136;48.778;9.126;2023-03-21T01:32:50;11.30;99.90
21944;DHT22;11136;48.778;9.126;2023-03-21T01:35:16;11.30;99.90
21944;DHT22;11136;48.778;9.126;2023-03-21T01:37:42;11.10;99.90
21944;DHT22;11136;48.778;9.126;2023-03-21T01:40:10;11.30;99.90
21944;DHT22;11136;48.778;9.126;2023-03-21T01:42:40;11.20;99.90
21944;DHT22;11136;48.778;9.126;2023-03-21T01:48:11;11.20;99.90
21944;DHT22;11136;48.778;9.126;2023-03-21T01:50:37;11.20;99.90
21944;DHT22;11136;48.778;9.126;2023-03-21T01:53:05;11.20;99.90
21944;DHT22;11136;48.778;9.126;2023-03-21T01:55:31;11.20;99.90
21944;DHT22;11136;48.778;9.126;2023-03-21T01:57:59;11.10;99.90
21944;DHT22;11136;48.778;9.126;2023-03-21T02:00:26;11.10;99.90
21944;DHT22;11136;48.778;9.126;2023-03-21T02:02:53;11.10;99.90
21944;DHT22;11136;48.778;9.126;2023-03-21T02:05:41;11.10;99.90
21944;DHT22;11136;48.778;9.126;2023-03-21T02:08:10;11.10;99.90
21944;DHT22;11136;48.778;9.126;2023-03-21T02:10:38;11.10;99.90
21944;DHT22;11136;48.778;9.126;2023-03-21T02:13:05;11.10;99.90
21944;DHT22;11136;48.778;9.126;2023-03-21T02:15:38;11.00;99.90
21944;DHT22;11136;48.778;9.126;2023-03-21T02:18:16;11.00;99.90
21944;DHT22;11136;48.778;9.126;2023-03-21T02:26:29;11.10;99.90
21944;DHT22;11136;48.778;9.126;2023-03-21T02:29:21;11.10;99.90
21944;DHT22;11136;48.778;9.126;2023-03-21T02:32:06;11.00;99.90
21944;DHT22;11136;48.778;9.126;2023-03-21T02:34:56;11.00;99.90
21944;DHT22;11136;48.778;9.126;2023-03-21T02:37:44;11.00;99.90
21944;DHT22;11136;48.778;9.126;2023-03-21T02:40:19;11.00;99.90
21944;DHT22;11136;48.778;9.126;2023-03-21T02:42:58;11.00;99.90
21944;DHT22;11136;48.778;9.126;2023-03-21T02:45:37;10.90;99.90
21944;DHT22;11136;48.778;9.126;2023-03-21T02:48:08;11.00;99.90
21944;DHT22;11136;48.778;9.126;2023-03-21T02:50:45;10.90;99.90
21944;DHT22;11136;48.778;9.126;2023-03-21T02:53:14;10.90;99.90
21944;DHT22;11136;48.778;9.126;2023-03-21T02:55:42;11.00;99.90
21944;DHT22;11136;48.778;9.126;2023-03-21T02:58:14;11.00;99.90
21944;DHT22;11136;48.778;9.126;2023-03-21T03:00:42;11.00;99.90
21944;DHT22;11136;48.778;9.126;2023-03-21T03:03:10;10.90;99.90
21944;DHT22;11136;48.778;9.126;2023-03-21T03:05:41;11.00;99.90
21944;DHT22;11136;48.778;9.126;2023-03-21T03:08:19;10.90;99.90
21944;DHT22;11136;48.778;9.126;2023-03-21T03:16:21;10.90;99.90
21944;DHT22;11136;48.778;9.126;2023-03-21T03:18:57;10.90;99.90
21944;DHT22;11136;48.778;9.126;2023-03-21T03:24:21;10.90;99.90
21944;DHT22;11136;48.778;9.126;2023-03-21T03:27:03;10.90;99.90
21944;DHT22;11136;48.778;9.126;2023-03-21T03:29:33;10.90;99.90
21944;DHT22;11136;48.778;9.126;2023-03-21T03:32:05;10.90;99.90
21944;DHT22;11136;48.778;9.126;2023-03-21T03:34:35;10.80;99.90
21944;DHT22;11136;48.778;9.126;2023-03-21T03:37:07;10.90;99.90
21944;DHT22;11136;48.778;9.126;2023-03-21T03:39:40;10.80;99.90
21944;DHT22;11136;48.778;9.126;2023-03-21T03:42:33;10.80;99.90
21944;DHT22;11136;48.778;9.126;2023-03-21T03:45:00;10.80;99.90
21944;DHT22;11136;48.778;9.126;2023-03-21T03:47:37;10.80;99.90
21944;DHT22;11136;48.778;9.126;2023-03-21T03:50:19;10.80;99.90
21944;DHT22;11136;48.778;9.126;2023-03-21T03:52:54;10.80;99.90
21944;DHT22;11136;48.778;9.126;2023-03-21T03:55:21;10.80;99.90
21944;DHT22;11136;48.778;9.126;2023-03-21T03:57:47;10.80;99.90
21944;DHT22;11136;48.778;9.126;2023-03-21T04:00:15;10.80;99.90
21944;DHT22;11136;48.778;9.126;2023-03-21T04:02:41;10.80;99.90
21944;DHT22;11136;48.778;9.126;2023-03-21T04:05:08;10.80;99.90
21944;DHT22;11136;48.778;9.126;2023-03-21T04:07:34;10.80;99.90
21944;DHT22;11136;48.778;9.126;2023-03-21T04:09:59;10.70;99.90
21944;DHT22;11136;48.778;9.126;2023-03-21T04:12:25;10.70;99.90
21944;DHT22;11136;48.778;9.126;2023-03-21T04:14:50;10.70;99.90
21944;DHT22;11136;48.778;9.126;2023-03-21T04:17:17;10.70;99.90
21944;DHT22;11136;48.778;9.126;2023-03-21T04:19:43;10.70;99.90
21944;DHT22;11136;48.778;9.126;2023-03-21T04:22:10;10.80;99.90
21944;DHT22;11136;48.778;9.126;2023-03-21T04:24:37;10.70;99.90
21944;DHT22;11136;48.778;9.126;2023-03-21T04:27:03;10.70;99.90
21944;DHT22;11136;48.778;9.126;2023-03-21T04:29:30;10.60;99.90
21944;DHT22;11136;48.778;9.126;2023-03-21T04:31:56;10.60;99.90
21944;DHT22;11136;48.778;9.126;2023-03-21T04:34:22;10.50;99.90
21944;DHT22;11136;48.778;9.126;2023-03-21T04:36:53;10.50;99.90
21944;DHT22;11136;48.778;9.126;2023-03-21T04:39:19;10.50;99.90
21944;DHT22;11136;48.778;9.126;2023-03-21T04:41:46;10.50;99.90
21944;DHT22;11136;48.778;9.126;2023-03-21T04:44:14;10.40;99.90
21944;DHT22;11136;48.778;9.126;2023-03-21T04:46:39;10.40;99.90
21944;DHT22;11136;48.778;9.126;2023-03-21T04:49:06;10.30;99.90
21944;DHT22;11136;48.778;9.126;2023-03-21T04:51:32;10.30;99.90
21944;DHT22;11136;48.778;9.126;2023-03-21T04:53:58;10.30;99.90
21944;DHT22;11136;48.778;9.126;2023-03-21T04:56:26;10.20;99.90
21944;DHT22;11136;48.778;9.126;2023-03-21T04:58:58;10.20;99.90
21944;DHT22;11136;48.778;9.126;2023-03-21T05:01:24;10.20;99.90
21944;DHT22;11136;48.778;9.126;2023-03-21T05:03:50;10.20;99.90
21944;DHT22;11136;48.778;9.126;2023-03-21T05:06:16;10.10;99.90
21944;DHT22;11136;48.778;9.126;2023-03-21T05:08:42;10.10;99.90
21944;DHT22;11136;48.778;9.126;2023-03-21T05:11:08;10.10;99.90
21944;DHT22;11136;48.778;9.126;2023-03-21T05:13:34;10.10;99.90
21944;DHT22;11136;48.778;9.126;2023-03-21T05:15:59;10.00;99.90
21944;DHT22;11136;48.778;9.126;2023-03-21T05:18:25;10.00;99.90
21944;DHT22;11136;48.778;9.126;2023-03-21T05:20:52;10.00;99.90
21944;DHT22;11136;48.778;9.126;2023-03-21T05:23:22;10.00;99.90
21944;DHT22;11136;48.778;9.126;2023-03-21T05:25:48;9.90;99.90
21944;DHT22;11136;48.778;9.126;2023-03-21T05:28:14;9.90;99.90
21944;DHT22;11136;48.778;9.126;2023-03-21T05:30:43;10.10;99.90
21944;DHT22;11136;48.778;9.126;2023-03-21T05:33:10;9.80;99.90
21944;DHT22;11136;48.778;9.126;2023-03-21T05:35:36;9.80;99.90
21944;DHT22;11136;48.778;9.126;2023-03-21T05:38:01;9.80;99.90
21944;DHT22;11136;48.778;9.126;2023-03-21T05:40:27;9.80;99.90
21944;DHT22;11136;48.778;9.126;2023-03-21T05:42:53;9.80;99.90
21944;DHT22;11136;48.778;9.126;2023-03-21T05:45:18;9.80;99.90
21944;DHT22;11136;48.778;9.126;2023-03-21T05:47:44;9.80;99.90
21944;DHT22;11136;48.778;9.126;2023-03-21T05:50:11;9.80;99.90
21944;DHT22;11136;48.778;9.126;2023-03-21T05:52:38;9.80;99.90
21944;DHT22;11136;48.778;9.126;2023-03-21T05:55:04;9.80;99.90
21944;DHT22;11136;48.778;9.126;2023-03-21T05:57:29;9.90;99.90
21944;DHT22;11136;48.778;9.126;2023-03-21T05:59:59;9.90;99.90
21944;DHT22;11136;48.778;9.126;2023-03-21T06:02:25;9.90;99.90
21944;DHT22;11136;48.778;9.126;2023-03-21T06:04:51;9.90;99.90
21944;DHT22;11136;48.778;9.126;2023-03-21T06:07:16;9.90;99.90
21944;DHT22;11136;48.778;9.126;2023-03-21T06:09:42;9.90;99.90
21944;DHT22;11136;48.778;9.126;2023-03-21T06:12:07;9.90;99.90
21944;DHT22;11136;48.778;9.126;2023-03-21T06:14:33;9.90;99.90
21944;DHT22;11136;48.778;9.126;2023-03-21T06:16:58;9.90;99.90
21944;DHT22;11136;48.778;9.126;2023-03-21T06:19:24;9.90;99.90
21944;DHT22;11136;48.778;9.126;2023-03-21T06:21:50;9.90;99.90
21944;DHT22;11136;48.778;9.126;2023-03-21T06:24:16;9.90;99.90
21944;DHT22;11136;48.778;9.126;2023-03-21T06:26:42;9.90;99.90
21944;DHT22;11136;48.778;9.126;2023-03-21T06:29:08;9.90;99.90
21944;DHT22;11136;48.778;9.126;2023-03-21T06:31:34;9.90;99.90
21944;DHT22;11136;48.778;9.126;2023-03-21T06:33:59;9.90;99.90
21944;DHT22;11136;48.778;9.126;2023-03-21T06:36:25;9.90;99.90
21944;DHT22;11136;48.778;9.126;2023-03-21T06:38:51;9.90;99.90
21944;DHT22;11136;48.778;9.126;2023-03-21T06:41:17;9.90;99.90
21944;DHT22;11136;48.778;9.126;2023-03-21T06:43:43;9.90;99.90
21944;DHT22;11136;48.778;9.126;2023-03-21T06:46:09;9.90;99.90
21944;DHT22;11136;48.778;9.126;2023-03-21T06:48:35;9.90;99.90
21944;DHT22;11136;48.778;9.126;2023-03-21T06:51:01;9.90;99.90
21944;DHT22;11136;48.778;9.126;2023-03-21T06:53:29;9.90;99.90
21944;DHT22;11136;48.778;9.126;2023-03-21T06:55:57;10.00;99.90
21944;DHT22;11136;48.778;9.126;2023-03-21T06:58:22;10.00;99.90
21944;DHT22;11136;48.778;9.126;2023-03-21T07:00:48;10.10;99.90
21944;DHT22;11136;48.778;9.126;2023-03-21T07:03:14;10.10;99.90
21944;DHT22;11136;48.778;9.126;2023-03-21T07:05:40;10.20;99.90
21944;DHT22;11136;48.778;9.126;2023-03-21T07:08:07;10.20;99.90
21944;DHT22;11136;48.778;9.126;2023-03-21T07:10:41;10.30;99.90
21944;DHT22;11136;48.778;9.126;2023-03-21T07:13:07;10.30;99.90
21944;DHT22;11136;48.778;9.126;2023-03-21T07:15:33;10.40;99.90
21944;DHT22;11136;48.778;9.126;2023-03-21T07:18:03;10.60;99.90
21944;DHT22;11136;48.778;9.126;2023-03-21T07:20:29;10.50;99.90
21944;DHT22;11136;48.778;9.126;2023-03-21T07:22:56;10.50;99.90
21944;DHT22;11136;48.778;9.126;2023-03-21T07:25:22;10.60;99.90
21944;DHT22;11136;48.778;9.126;2023-03-21T07:27:47;10.70;99.90
21944;DHT22;11136;48.778;9.126;2023-03-21T07:30:13;10.70;99.90
21944;DHT22;11136;48.778;9.126;2023-03-21T07:32:39;10.80;99.90
21944;DHT22;11136;48.778;9.126;2023-03-21T07:35:07;10.80;99.90
21944;DHT22;11136;48.778;9.126;2023-03-21T07:37:33;10.90;99.90
21944;DHT22;11136;48.778;9.126;2023-03-21T07:39:58;11.00;99.90
21944;DHT22;11136;48.778;9.126;2023-03-21T07:42:24;11.10;99.90
21944;DHT22;11136;48.778;9.126;2023-03-21T07:44:50;11.20;99.90
21944;DHT22;11136;48.778;9.126;2023-03-21T07:47:17;11.30;99.90
21944;DHT22;11136;48.778;9.126;2023-03-21T07:49:42;11.50;99.90
21944;DHT22;11136;48.778;9.126;2023-03-21T07:52:08;11.80;99.90
21944;DHT22;11136;48.778;9.126;2023-03-21T07:54:33;12.10;99.90
21944;DHT22;11136;48.778;9.126;2023-03-21T07:56:59;12.30;99.90
21944;DHT22;11136;48.778;9.126;2023-03-21T07:59:25;12.50;99.90
21944;DHT22;11136;48.778;9.126;2023-03-21T08:01:50;12.70;99.90
21944;DHT22;11136;48.778;9.126;2023-03-21T08:04:16;12.80;99.90
21944;DHT22;11136;48.778;9.126;2023-03-21T08:06:41;12.90;99.90
21944;DHT22;11136;48.778;9.126;2023-03-21T08:09:07;13.00;99.90
21944;DHT22;11136;48.778;9.126;2023-03-21T08:11:33;13.10;99.90
21944;DHT22;11136;48.778;9.126;2023-03-21T08:13:59;13.10;99.90
21944;DHT22;11136;48.778;9.126;2023-03-21T08:16:26;13.10;99.90
21944;DHT22;11136;48.778;9.126;2023-03-21T08:18:52;13.10;99.90
21944;DHT22;11136;48.778;9.126;2023-03-21T08:21:17;13.10;99.90
21944;DHT22;11136;48.778;9.126;2023-03-21T08:23:43;13.10;99.90
21944;DHT22;11136;48.778;9.126;2023-03-21T08:26:08;13.10;99.90
21944;DHT22;11136;48.778;9.126;2023-03-21T08:28:35;13.10;99.90
21944;DHT22;11136;48.778;9.126;2023-03-21T08:31:06;13.10;99.90
21944;DHT22;11136;48.778;9.126;2023-03-21T08:33:31;13.20;99.40
21944;DHT22;11136;48.778;9.126;2023-03-21T08:35:59;13.30;99.40
21944;DHT22;11136;48.778;9.126;2023-03-21T08:38:25;13.40;99.20
21944;DHT22;11136;48.778;9.126;2023-03-21T08:40:54;13.60;99.20
21944;DHT22;11136;48.778;9.126;2023-03-21T08:43:20;14.00;99.20
21944;DHT22;11136;48.778;9.126;2023-03-21T08:45:45;14.40;98.90
21944;DHT22;11136;48.778;9.126;2023-03-21T08:48:11;14.80;98.50
21944;DHT22;11136;48.778;9.126;2023-03-21T08:50:36;15.20;97.80
21944;DHT22;11136;48.778;9.126;2023-03-21T08:53:02;15.40;97.10
21944;DHT22;11136;48.778;9.126;2023-03-21T08:55:27;15.70;95.60
21944;DHT22;11136;48.778;9.126;2023-03-21T08:57:53;15.80;93.90
21944;DHT22;11136;48.778;9.126;2023-03-21T09:00:20;15.90;93.20
21944;DHT22;11136;48.778;9.126;2023-03-21T09:02:48;16.20;92.30
21944;DHT22;11136;48.778;9.126;2023-03-21T09:05:15;16.30;91.90
21944;DHT22;11136;48.778;9.126;2023-03-21T09:07:41;16.40;92.10
21944;DHT22;11136;48.778;9.126;2023-03-21T09:10:11;16.50;91.10
21944;DHT22;11136;48.778;9.126;2023-03-21T09:12:37;16.60;91.30
21944;DHT22;11136;48.778;9.126;2023-03-21T09:15:03;16.70;89.20
21944;DHT22;11136;48.778;9.126;2023-03-21T09:17:29;16.80;89.80
21944;DHT22;11136;48.778;9.126;2023-03-21T09:19:56;16.90;90.00
21944;DHT22;11136;48.778;9.126;2023-03-21T09:22:23;17.00;89.00
21944;DHT22;11136;48.778;9.126;2023-03-21T09:24:49;17.20;88.80
21944;DHT22;11136;48.778;9.126;2023-03-21T09:27:16;17.20;86.70
21944;DHT22;11136;48.778;9.126;2023-03-21T09:29:49;17.10;84.80
21944;DHT22;11136;48.778;9.126;2023-03-21T09:32:15;17.00;82.80
21944;DHT22;11136;48.778;9.126;2023-03-21T09:34:42;16.80;82.30
21944;DHT22;11136;48.778;9.126;2023-03-21T09:37:09;16.70;82.80
21944;DHT22;11136;48.778;9.126;2023-03-21T09:39:40;16.70;84.80
21944;DHT22;11136;48.778;9.126;2023-03-21T09:47:39;17.10;85.20
21944;DHT22;11136;48.778;9.126;2023-03-21T09:50:16;17.30;85.60
21944;DHT22;11136;48.778;9.126;2023-03-21T09:53:08;17.50;83.30
21944;DHT22;11136;48.778;9.126;2023-03-21T09:55:38;17.50;82.40
21944;DHT22;11136;48.778;9.126;2023-03-21T10:00:43;17.50;81.80
21944;DHT22;11136;48.778;9.126;2023-03-21T10:03:20;17.50;82.50
21944;DHT22;11136;48.778;9.126;2023-03-21T10:05:51;17.60;81.80
21944;DHT22;11136;48.778;9.126;2023-03-21T10:08:22;17.60;81.90
21944;DHT22;11136;48.778;9.126;2023-03-21T10:10:57;17.70;80.90
21944;DHT22;11136;48.778;9.126;2023-03-21T10:13:27;17.70;80.60
21944;DHT22;11136;48.778;9.126;2023-03-21T10:16:09;17.70;80.70
21944;DHT22;11136;48.778;9.126;2023-03-21T10:18:39;17.80;80.50
21944;DHT22;11136;48.778;9.126;2023-03-21T10:21:06;17.90;80.60
21944;DHT22;11136;48.778;9.126;2023-03-21T10:23:32;18.00;79.60
21944;DHT22;11136;48.778;9.126;2023-03-21T10:26:00;18.00;78.50
21944;DHT22;11136;48.778;9.126;2023-03-21T10:28:34;18.00;78.40
21944;DHT22;11136;48.778;9.126;2023-03-21T10:31:04;18.10;78.80
21944;DHT22;11136;48.778;9.126;2023-03-21T10:33:37;18.20;79.00
21944;DHT22;11136;48.778;9.126;2023-03-21T10:36:09;18.30;77.20
21944;DHT22;11136;48.778;9.126;2023-03-21T10:38:40;18.30;76.60
21944;DHT22;11136;48.778;9.126;2023-03-21T10:41:09;18.30;76.00
21944;DHT22;11136;48.778;9.126;2023-03-21T10:43:37;18.20;75.60
21944;DHT22;11136;48.778;9.126;2023-03-21T10:48:39;18.20;77.10
21944;DHT22;11136;48.778;9.126;2023-03-21T10:51:08;18.30;77.60
21944;DHT22;11136;48.778;9.126;2023-03-21T10:53:45;18.30;76.50
21944;DHT22;11136;48.778;9.126;2023-03-21T10:56:12;18.30;75.20
21944;DHT22;11136;48.778;9.126;2023-03-21T10:58:43;18.20;75.40
21944;DHT22;11136;48.778;9.126;2023-03-21T11:01:13;18.10;73.10
21944;DHT22;11136;48.778;9.126;2023-03-21T11:03:43;18.00;72.90
21944;DHT22;11136;48.778;9.126;2023-03-21T11:06:38;17.90;72.80
21944;DHT22;11136;48.778;9.126;2023-03-21T11:09:14;17.70;72.40
21944;DHT22;11136;48.778;9.126;2023-03-21T11:11:51;17.70;72.90
21944;DHT22;11136;48.778;9.126;2023-03-21T11:16:58;17.60;73.00
21944;DHT22;11136;48.778;9.126;2023-03-21T11:19:32;17.60;72.70
21944;DHT22;11136;48.778;9.126;2023-03-21T11:22:02;17.50;72.00
21944;DHT22;11136;48.778;9.126;2023-03-21T11:24:30;17.50;73.10
21944;DHT22;11136;48.778;9.126;2023-03-21T11:26:56;17.50;73.90
21944;DHT22;11136;48.778;9.126;2023-03-21T11:29:33;17.50;74.10
21944;DHT22;11136;48.778;9.126;2023-03-21T11:32:08;17.50;73.70
21944;DHT22;11136;48.778;9.126;2023-03-21T11:34:56;17.50;73.40
21944;DHT22;11136;48.778;9.126;2023-03-21T11:40:05;17.40;72.70
21944;DHT22;11136;48.778;9.126;2023-03-21T11:42:38;17.30;73.00
21944;DHT22;11136;48.778;9.126;2023-03-21T11:45:13;17.40;73.40
21944;DHT22;11136;48.778;9.126;2023-03-21T11:47:39;17.20;73.90
21944;DHT22;11136;48.778;9.126;2023-03-21T11:50:33;17.20;74.00
21944;DHT22;11136;48.778;9.126;2023-03-21T11:58:35;17.30;74.30
21944;DHT22;11136;48.778;9.126;2023-03-21T12:06:24;17.30;74.10
21944;DHT22;11136;48.778;9.126;2023-03-21T12:19:44;17.50;70.50
21944;DHT22;11136;48.778;9.126;2023-03-21T12:22:50;17.50;69.30
21944;DHT22;11136;48.778;9.126;2023-03-21T12:25:31;17.40;68.00
21944;DHT22;11136;48.778;9.126;2023-03-21T12:32:02;17.40;68.20
21944;DHT22;11136;48.778;9.126;2023-03-21T12:34:53;17.40;67.70
21944;DHT22;11136;48.778;9.126;2023-03-21T12:40:48;17.40;68.00
21944;DHT22;11136;48.778;9.126;2023-03-21T12:43:23;17.50;68.00
21944;DHT22;11136;48.778;9.126;2023-03-21T12:45:54;17.60;68.70
21944;DHT22;11136;48.778;9.126;2023-03-21T12:48:41;17.70;68.60
21944;DHT22;11136;48.778;9.126;2023-03-21T12:51:15;17.80;68.40
21944;DHT22;11136;48.778;9.126;2023-03-21T12:57:24;18.10;67.70
21944;DHT22;11136;48.778;9.126;2023-03-21T12:59:40;18.30;68.10
21944;DHT22;11136;48.778;9.126;2023-03-21T13:02:17;18.60;68.10
21944;DHT22;11136;48.778;9.126;2023-03-21T13:05:02;18.80;67.80
21944;DHT22;11136;48.778;9.126;2023-03-21T13:07:36;19.00;67.80
21944;DHT22;11136;48.778;9.126;2023-03-21T13:10:12;19.30;67.30
21944;DHT22;11136;48.778;9.126;2023-03-21T13:22:58;19.50;65.50
21944;DHT22;11136;48.778;9.126;2023-03-21T13:25:24;19.50;65.30
21944;DHT22;11136;48.778;9.126;2023-03-21T13:27:53;19.50;64.90
21944;DHT22;11136;48.778;9.126;2023-03-21T13:33:13;19.50;64.30
21944;DHT22;11136;48.778;9.126;2023-03-21T13:35:42;19.50;62.90
21944;DHT22;11136;48.778;9.126;2023-03-21T13:38:24;19.40;61.80
21944;DHT22;11136;48.778;9.126;2023-03-21T13:46:36;19.20;60.90
21944;DHT22;11136;48.778;9.126;2023-03-21T13:49:01;19.10;60.90
21944;DHT22;11136;48.778;9.126;2023-03-21T13:59:35;18.80;62.10
21944;DHT22;11136;48.778;9.126;2023-03-21T14:04:37;18.90;62.20
21944;DHT22;11136;48.778;9.126;2023-03-21T14:07:22;19.00;62.50
21944;DHT22;11136;48.778;9.126;2023-03-21T14:09:58;19.10;63.10
21944;DHT22;11136;48.778;9.126;2023-03-21T14:12:28;19.10;63.60
21944;DHT22;11136;48.778;9.126;2023-03-21T14:15:00;19.20;64.20
21944;DHT22;11136;48.778;9.126;2023-03-21T14:17:32;19.20;64.60
21944;DHT22;11136;48.778;9.126;2023-03-21T14:20:01;19.20;64.60
21944;DHT22;11136;48.778;9.126;2023-03-21T14:22:35;19.30;65.50
21944;DHT22;11136;48.778;9.126;2023-03-21T14:25:05;19.30;66.30
21944;DHT22;11136;48.778;9.126;2023-03-21T14:27:33;19.40;67.10
21944;DHT22;11136;48.778;9.126;2023-03-21T14:30:00;19.40;67.20
21944;DHT22;11136;48.778;9.126;2023-03-21T14:32:28;19.60;67.10
21944;DHT22;11136;48.778;9.126;2023-03-21T14:34:55;19.60;67.20
21944;DHT22;11136;48.778;9.126;2023-03-21T14:39:56;19.60;67.30
21944;DHT22;11136;48.778;9.126;2023-03-21T14:42:24;19.70;67.60
21944;DHT22;11136;48.778;9.126;2023-03-21T14:44:50;19.70;67.60
21944;DHT22;11136;48.778;9.126;2023-03-21T14:47:25;19.70;67.40
21944;DHT22;11136;48.778;9.126;2023-03-21T14:49:52;19.70;67.30
21944;DHT22;11136;48.778;9.126;2023-03-21T14:52:24;19.70;67.50
21944;DHT22;11136;48.778;9.126;2023-03-21T14:54:51;20.00;67.80
21944;DHT22;11136;48.778;9.126;2023-03-21T14:57:23;19.80;67.70
21944;DHT22;11136;48.778;9.126;2023-03-21T14:59:51;19.80;67.40
21944;DHT22;11136;48.778;9.126;2023-03-21T15:02:47;19.90;67.60
21944;DHT22;11136;48.778;9.126;2023-03-21T15:05:32;19.90;67.80
21944;DHT22;11136;48.778;9.126;2023-03-21T15:08:23;19.90;68.10
21944;DHT22;11136;48.778;9.126;2023-03-21T15:11:14;19.90;68.30
21944;DHT22;11136;48.778;9.126;2023-03-21T15:13:44;20.00;68.80
21944;DHT22;11136;48.778;9.126;2023-03-21T15:16:11;20.10;69.00
21944;DHT22;11136;48.778;9.126;2023-03-21T15:18:39;20.10;68.90
21944;DHT22;11136;48.778;9.126;2023-03-21T15:21:14;20.20;68.80
21944;DHT22;11136;48.778;9.126;2023-03-21T15:23:46;20.20;69.00
21944;DHT22;11136;48.778;9.126;2023-03-21T15:26:15;20.30;69.00
21944;DHT22;11136;48.778;9.126;2023-03-21T15:28:46;20.30;68.80
21944;DHT22;11136;48.778;9.126;2023-03-21T15:31:16;20.20;68.70
21944;DHT22;11136;48.778;9.126;2023-03-21T15:33:48;20.20;68.80
21944;DHT22;11136;48.778;9.126;2023-03-21T15:36:20;20.00;68.70
21944;DHT22;11136;48.778;9.126;2023-03-21T15:38:46;19.90;68.90
21944;DHT22;11136;48.778;9.126;2023-03-21T15:43:41;19.80;69.50
21944;DHT22;11136;48.778;9.126;2023-03-21T15:46:15;19.60;69.80
21944;DHT22;11136;48.778;9.126;2023-03-21T15:48:41;19.50;70.00
21944;DHT22;11136;48.778;9.126;2023-03-21T15:51:14;19.40;70.30
21944;DHT22;11136;48.778;9.126;2023-03-21T15:53:42;19.30;70.50
21944;DHT22;11136;48.778;9.126;2023-03-21T15:56:09;19.20;70.70
21944;DHT22;11136;48.778;9.126;2023-03-21T15:58:43;19.10;71.10
21944;DHT22;11136;48.778;9.126;2023-03-21T16:01:17;19.00;71.50
21944;DHT22;11136;48.778;9.126;2023-03-21T16:03:46;18.90;71.80
21944;DHT22;11136;48.778;9.126;2023-03-21T16:06:16;18.90;71.90
21944;DHT22;11136;48.778;9.126;2023-03-21T16:08:46;18.70;72.20
21944;DHT22;11136;48.778;9.126;2023-03-21T16:13:47;18.70;73.10
21944;DHT22;11136;48.778;9.126;2023-03-21T16:16:25;18.50;73.10
21944;DHT22;11136;48.778;9.126;2023-03-21T16:18:52;18.50;73.50
21944;DHT22;11136;48.778;9.126;2023-03-21T16:21:20;18.40;73.80
21944;DHT22;11136;48.778;9.126;2023-03-21T16:23:46;18.40;74.10
21944;DHT22;11136;48.778;9.126;2023-03-21T16:26:15;18.30;74.10
21944;DHT22;11136;48.778;9.126;2023-03-21T16:28:41;18.30;74.30
21944;DHT22;11136;48.778;9.126;2023-03-21T16:31:25;18.20;74.50
21944;DHT22;11136;48.778;9.126;2023-03-21T16:33:51;18.20;74.70
21944;DHT22;11136;48.778;9.126;2023-03-21T16:36:26;18.10;74.80
21944;DHT22;11136;48.778;9.126;2023-03-21T16:38:53;18.10;75.00
21944;DHT22;11136;48.778;9.126;2023-03-21T16:41:21;18.00;75.30
21944;DHT22;11136;48.778;9.126;2023-03-21T16:43:47;17.90;75.50
21944;DHT22;11136;48.778;9.126;2023-03-21T16:46:26;17.90;75.80
21944;DHT22;11136;48.778;9.126;2023-03-21T16:48:55;17.80;75.80
21944;DHT22;11136;48.778;9.126;2023-03-21T16:51:24;17.80;75.90
21944;DHT22;11136;48.778;9.126;2023-03-21T16:53:53;17.70;75.90
21944;DHT22;11136;48.778;9.126;2023-03-21T16:58:47;17.60;76.10
21944;DHT22;11136;48.778;9.126;2023-03-21T17:01:18;17.60;76.20
21944;DHT22;11136;48.778;9.126;2023-03-21T17:03:45;17.50;76.50
21944;DHT22;11136;48.778;9.126;2023-03-21T17:06:22;17.50;76.60
21944;DHT22;11136;48.778;9.126;2023-03-21T17:08:49;17.50;76.90
21944;DHT22;11136;48.778;9.126;2023-03-21T17:11:18;17.40;77.10
21944;DHT22;11136;48.778;9.126;2023-03-21T17:13:47;17.40;77.40
21944;DHT22;11136;48.778;9.126;2023-03-21T17:16:15;17.30;77.20
21944;DHT22;11136;48.778;9.126;2023-03-21T17:18:41;17.30;77.40
21944;DHT22;11136;48.778;9.126;2023-03-21T17:23:41;17.30;77.90
21944;DHT22;11136;48.778;9.126;2023-03-21T17:26:08;17.20;77.90
21944;DHT22;11136;48.778;9.126;2023-03-21T17:28:36;17.20;78.00
21944;DHT22;11136;48.778;9.126;2023-03-21T17:31:03;17.10;78.20
21944;DHT22;11136;48.778;9.126;2023-03-21T17:33:29;17.10;78.20
21944;DHT22;11136;48.778;9.126;2023-03-21T17:35:54;17.10;78.40